Hlavní strana
METAR-TAF:

METAR-TAF

Letiště :

Mezinárodní letiště Indiry Gándhíové

Nové Dillí, Indie

zeměpisná šířka: 28-34N, zeměpisná délka: 077-07E, výška: 220 m

Aktuální stav počasí

Zpráva byla vytvořena před 2 hodinami a 23 minutami, v 21:00 UTC
Bezvětří
Teplota 22°C
Vlhkost vzduchu 73%
Tlak 1013 hPa
Viditelnost: 3500 m
Skoro jasno ve výšce 10000 ft
zákal

METAR: VIDP 152100Z 00000KT 3500 HZ FEW100 22/17 Q1013 NOSIG

Čas: 04:53 (23:23 UTC)

Předpověď počasí

Zpráva byla vytvořena před 3 hodinami a 23 minutami, v 20:00 UTC
Předpověď platná od 15 v 21 UTC do 16 v 06 UTC
Severní vítr kt
Viditelnost: 2500 m
Skoro jasno ve výšce 4000 ft
zákal, kouřmo
Změna
od 16 v 00 UTC do 16 v 02 UTC
Východoseverovýchodní vítr 3 kt
Viditelnost: 1500 m
kouřmo
Změna
od 16 v 05 UTC do 16 v 06 UTC
Východojihovýchodní vítr 6 kt
Viditelnost: 4000 m
Polojasno ve výšce 3500 ft
zákal

TAF: VIDP 152000Z 1521/1606 00000KT 2500 HZ BR FEW040 BECMG 1600/1602 07003KT 1500 BR BECMG 1605/1606 11006KT 4000 HZ SCT035

Stav a předpovědi počasí z více než 4 000 letišť (zprávy METAR a TAF).

Červené a žluté tečky na mapě představují dostupné meteorologické stanice.

Když kurzor umístíte na tečku, zobrazí se název stanice.

Pak kliknutím zobrazíte stav a předpověď počasí.

Chcete-li změnit mapu, kliknutím na zelené tlačítko se znaménkem +mapu přiblížíte, kliknutím na zelené tlačítko se znaménkem – mapu oddálíte a kliknutím na zelené šipky přejdete na sousední mapy.


METAR-TAF: